sensor_id;sensor_type;location;lat;lon;timestamp;temperature;humidity
74376;HTU21D;62812;55.188;61.302;2023-12-29T00:00:52;-1.61;75.56
74376;HTU21D;62812;55.188;61.302;2023-12-29T00:03:20;-1.61;75.54
74376;HTU21D;62812;55.188;61.302;2023-12-29T00:05:47;-1.53;75.31
74376;HTU21D;62812;55.188;61.302;2023-12-29T00:08:13;-1.63;76.15
74376;HTU21D;62812;55.188;61.302;2023-12-29T00:10:40;-1.68;76.44
74376;HTU21D;62812;55.188;61.302;2023-12-29T00:13:06;-1.62;75.74
74376;HTU21D;62812;55.188;61.302;2023-12-29T00:15:33;-1.70;75.84
74376;HTU21D;62812;55.188;61.302;2023-12-29T00:17:59;-1.65;76.89
74376;HTU21D;62812;55.188;61.302;2023-12-29T00:20:27;-1.61;76.17
74376;HTU21D;62812;55.188;61.302;2023-12-29T00:22:54;-1.69;74.83
74376;HTU21D;62812;55.188;61.302;2023-12-29T00:25:24;-1.65;75.77
74376;HTU21D;62812;55.188;61.302;2023-12-29T00:27:51;-1.64;75.79
74376;HTU21D;62812;55.188;61.302;2023-12-29T00:30:18;-1.64;74.89
74376;HTU21D;62812;55.188;61.302;2023-12-29T00:32:47;-1.60;75.34
74376;HTU21D;62812;55.188;61.302;2023-12-29T00:35:14;-1.68;74.93
74376;HTU21D;62812;55.188;61.302;2023-12-29T00:37:43;-1.80;74.83
74376;HTU21D;62812;55.188;61.302;2023-12-29T00:40:11;-1.90;75.67
74376;HTU21D;62812;55.188;61.302;2023-12-29T00:42:38;-1.86;75.21
74376;HTU21D;62812;55.188;61.302;2023-12-29T00:45:05;-1.90;75.79
74376;HTU21D;62812;55.188;61.302;2023-12-29T00:47:33;-1.97;74.68
74376;HTU21D;62812;55.188;61.302;2023-12-29T00:50:00;-2.03;74.44
74376;HTU21D;62812;55.188;61.302;2023-12-29T00:52:53;-2.20;76.45
74376;HTU21D;62812;55.188;61.302;2023-12-29T00:55:20;-2.17;76.79
74376;HTU21D;62812;55.188;61.302;2023-12-29T00:57:46;-2.19;76.24
74376;HTU21D;62812;55.188;61.302;2023-12-29T01:00:14;-2.16;75.39
74376;HTU21D;62812;55.188;61.302;2023-12-29T01:02:40;-2.32;76.05
74376;HTU21D;62812;55.188;61.302;2023-12-29T01:05:07;-2.38;76.57
74376;HTU21D;62812;55.188;61.302;2023-12-29T01:07:35;-2.28;76.74
74376;HTU21D;62812;55.188;61.302;2023-12-29T01:10:04;-2.31;75.53
74376;HTU21D;62812;55.188;61.302;2023-12-29T01:12:31;-2.16;76.31
74376;HTU21D;62812;55.188;61.302;2023-12-29T01:14:57;-2.15;76.26
74376;HTU21D;62812;55.188;61.302;2023-12-29T01:17:24;-2.14;75.91
74376;HTU21D;62812;55.188;61.302;2023-12-29T01:19:51;-2.10;75.90
74376;HTU21D;62812;55.188;61.302;2023-12-29T01:22:17;-2.20;75.06
74376;HTU21D;62812;55.188;61.302;2023-12-29T01:24:44;-2.20;75.47
74376;HTU21D;62812;55.188;61.302;2023-12-29T01:27:13;-2.27;76.14
74376;HTU21D;62812;55.188;61.302;2023-12-29T01:29:39;-2.28;76.18
74376;HTU21D;62812;55.188;61.302;2023-12-29T01:32:06;-2.23;75.99
74376;HTU21D;62812;55.188;61.302;2023-12-29T01:34:34;-2.31;75.83
74376;HTU21D;62812;55.188;61.302;2023-12-29T01:37:02;-2.22;74.95
74376;HTU21D;62812;55.188;61.302;2023-12-29T01:39:30;-2.17;74.92
74376;HTU21D;62812;55.188;61.302;2023-12-29T01:41:57;-2.24;74.15
74376;HTU21D;62812;55.188;61.302;2023-12-29T01:44:25;-2.32;74.96
74376;HTU21D;62812;55.188;61.302;2023-12-29T01:46:54;-2.43;76.32
74376;HTU21D;62812;55.188;61.302;2023-12-29T01:49:21;-2.41;76.86
74376;HTU21D;62812;55.188;61.302;2023-12-29T01:51:50;-2.48;75.62
74376;HTU21D;62812;55.188;61.302;2023-12-29T01:54:18;-2.42;76.89
74376;HTU21D;62812;55.188;61.302;2023-12-29T01:56:46;-2.36;76.55
74376;HTU21D;62812;55.188;61.302;2023-12-29T01:59:13;-2.35;75.57
74376;HTU21D;62812;55.188;61.302;2023-12-29T02:01:42;-2.48;74.33
74376;HTU21D;62812;55.188;61.302;2023-12-29T02:04:12;-2.58;75.44
74376;HTU21D;62812;55.188;61.302;2023-12-29T02:06:39;-2.58;75.14
74376;HTU21D;62812;55.188;61.302;2023-12-29T02:09:06;-2.60;74.85
74376;HTU21D;62812;55.188;61.302;2023-12-29T02:11:33;-2.64;75.46
74376;HTU21D;62812;55.188;61.302;2023-12-29T02:14:00;-2.66;76.05
74376;HTU21D;62812;55.188;61.302;2023-12-29T02:16:33;-2.68;75.22
74376;HTU21D;62812;55.188;61.302;2023-12-29T02:19:13;-2.65;75.17
74376;HTU21D;62812;55.188;61.302;2023-12-29T02:21:45;-2.72;74.52
74376;HTU21D;62812;55.188;61.302;2023-12-29T02:24:12;-2.80;74.33
74376;HTU21D;62812;55.188;61.302;2023-12-29T02:26:44;-2.86;74.38
74376;HTU21D;62812;55.188;61.302;2023-12-29T02:29:18;-2.91;76.54
74376;HTU21D;62812;55.188;61.302;2023-12-29T02:31:48;-2.79;74.85
74376;HTU21D;62812;55.188;61.302;2023-12-29T02:34:18;-2.79;74.20
74376;HTU21D;62812;55.188;61.302;2023-12-29T02:36:47;-2.88;74.64
74376;HTU21D;62812;55.188;61.302;2023-12-29T02:39:15;-2.92;74.74
74376;HTU21D;62812;55.188;61.302;2023-12-29T02:41:48;-2.76;75.49
74376;HTU21D;62812;55.188;61.302;2023-12-29T02:44:15;-2.84;73.80
74376;HTU21D;62812;55.188;61.302;2023-12-29T02:46:41;-2.94;73.57
74376;HTU21D;62812;55.188;61.302;2023-12-29T02:49:08;-3.10;75.96
74376;HTU21D;62812;55.188;61.302;2023-12-29T02:51:42;-3.09;75.12
74376;HTU21D;62812;55.188;61.302;2023-12-29T02:54:11;-3.08;74.19
74376;HTU21D;62812;55.188;61.302;2023-12-29T02:56:38;-3.21;75.69
74376;HTU21D;62812;55.188;61.302;2023-12-29T02:59:07;-3.15;75.54
74376;HTU21D;62812;55.188;61.302;2023-12-29T03:01:35;-3.19;73.56
74376;HTU21D;62812;55.188;61.302;2023-12-29T03:04:02;-3.21;74.31
74376;HTU21D;62812;55.188;61.302;2023-12-29T03:06:28;-3.27;75.34
74376;HTU21D;62812;55.188;61.302;2023-12-29T03:08:55;-3.25;75.68
74376;HTU21D;62812;55.188;61.302;2023-12-29T03:11:26;-3.30;74.31
74376;HTU21D;62812;55.188;61.302;2023-12-29T03:13:53;-3.45;73.48
74376;HTU21D;62812;55.188;61.302;2023-12-29T03:16:24;-3.51;72.31
74376;HTU21D;62812;55.188;61.302;2023-12-29T03:18:51;-3.54;74.27
74376;HTU21D;62812;55.188;61.302;2023-12-29T03:21:18;-3.60;74.19
74376;HTU21D;62812;55.188;61.302;2023-12-29T03:23:48;-3.62;75.47
74376;HTU21D;62812;55.188;61.302;2023-12-29T03:26:15;-3.70;75.32
74376;HTU21D;62812;55.188;61.302;2023-12-29T03:28:42;-3.64;75.21
74376;HTU21D;62812;55.188;61.302;2023-12-29T03:31:09;-3.69;74.06
74376;HTU21D;62812;55.188;61.302;2023-12-29T03:33:41;-3.74;75.27
74376;HTU21D;62812;55.188;61.302;2023-12-29T03:36:09;-3.62;73.54
74376;HTU21D;62812;55.188;61.302;2023-12-29T03:38:35;-3.58;73.62
74376;HTU21D;62812;55.188;61.302;2023-12-29T03:41:03;-3.55;73.65
74376;HTU21D;62812;55.188;61.302;2023-12-29T03:43:30;-3.55;72.75
74376;HTU21D;62812;55.188;61.302;2023-12-29T03:46:00;-3.69;74.35
74376;HTU21D;62812;55.188;61.302;2023-12-29T03:48:27;-3.67;74.38
74376;HTU21D;62812;55.188;61.302;2023-12-29T03:50:55;-3.75;73.24
74376;HTU21D;62812;55.188;61.302;2023-12-29T03:53:22;-3.76;72.74
74376;HTU21D;62812;55.188;61.302;2023-12-29T03:55:49;-3.74;71.66
74376;HTU21D;62812;55.188;61.302;2023-12-29T03:58:16;-3.84;70.68
74376;HTU21D;62812;55.188;61.302;2023-12-29T04:00:43;-4.00;72.91
74376;HTU21D;62812;55.188;61.302;2023-12-29T04:03:09;-4.07;71.48
74376;HTU21D;62812;55.188;61.302;2023-12-29T04:05:45;-4.20;73.19
74376;HTU21D;62812;55.188;61.302;2023-12-29T04:08:13;-4.37;73.33
74376;HTU21D;62812;55.188;61.302;2023-12-29T04:10:40;-4.37;71.55
74376;HTU21D;62812;55.188;61.302;2023-12-29T04:13:07;-4.35;71.69
74376;HTU21D;62812;55.188;61.302;2023-12-29T04:15:34;-4.38;71.22
74376;HTU21D;62812;55.188;61.302;2023-12-29T04:18:00;-4.48;71.19
74376;HTU21D;62812;55.188;61.302;2023-12-29T04:20:27;-4.46;72.09
74376;HTU21D;62812;55.188;61.302;2023-12-29T04:22:54;-4.38;71.73
74376;HTU21D;62812;55.188;61.302;2023-12-29T04:25:37;-4.40;68.91
74376;HTU21D;62812;55.188;61.302;2023-12-29T04:28:04;-4.54;68.81
74376;HTU21D;62812;55.188;61.302;2023-12-29T04:30:31;-4.64;71.78
74376;HTU21D;62812;55.188;61.302;2023-12-29T04:32:58;-4.70;70.88
74376;HTU21D;62812;55.188;61.302;2023-12-29T04:35:25;-4.70;72.07
74376;HTU21D;62812;55.188;61.302;2023-12-29T04:37:52;-4.68;69.20
74376;HTU21D;62812;55.188;61.302;2023-12-29T04:40:20;-4.75;66.92
74376;HTU21D;62812;55.188;61.302;2023-12-29T04:42:49;-5.01;66.59
74376;HTU21D;62812;55.188;61.302;2023-12-29T04:45:19;-5.14;67.85
74376;HTU21D;62812;55.188;61.302;2023-12-29T04:47:46;-5.22;67.36
74376;HTU21D;62812;55.188;61.302;2023-12-29T04:50:13;-5.23;68.49
74376;HTU21D;62812;55.188;61.302;2023-12-29T04:52:40;-5.18;71.09
74376;HTU21D;62812;55.188;61.302;2023-12-29T04:55:07;-5.17;69.30
74376;HTU21D;62812;55.188;61.302;2023-12-29T04:57:35;-5.30;66.76
74376;HTU21D;62812;55.188;61.302;2023-12-29T05:00:04;-5.24;71.07
74376;HTU21D;62812;55.188;61.302;2023-12-29T05:02:33;-5.35;67.43
74376;HTU21D;62812;55.188;61.302;2023-12-29T05:04:59;-5.47;69.30
74376;HTU21D;62812;55.188;61.302;2023-12-29T05:07:27;-5.63;65.24
74376;HTU21D;62812;55.188;61.302;2023-12-29T05:09:53;-5.71;70.29
74376;HTU21D;62812;55.188;61.302;2023-12-29T05:12:20;-5.86;65.31
74376;HTU21D;62812;55.188;61.302;2023-12-29T05:14:47;-5.97;64.07
74376;HTU21D;62812;55.188;61.302;2023-12-29T05:17:15;-5.97;70.10
74376;HTU21D;62812;55.188;61.302;2023-12-29T05:19:43;-6.01;66.09
74376;HTU21D;62812;55.188;61.302;2023-12-29T05:22:10;-6.01;67.14
74376;HTU21D;62812;55.188;61.302;2023-12-29T05:24:43;-6.04;68.58
74376;HTU21D;62812;55.188;61.302;2023-12-29T05:27:11;-5.94;69.00
74376;HTU21D;62812;55.188;61.302;2023-12-29T05:29:39;-5.97;64.44
74376;HTU21D;62812;55.188;61.302;2023-12-29T05:32:06;-5.87;63.25
74376;HTU21D;62812;55.188;61.302;2023-12-29T05:34:36;-5.92;64.47
74376;HTU21D;62812;55.188;61.302;2023-12-29T05:37:04;-5.96;64.36
74376;HTU21D;62812;55.188;61.302;2023-12-29T05:39:31;-5.99;69.17
74376;HTU21D;62812;55.188;61.302;2023-12-29T05:41:58;-6.03;66.88
74376;HTU21D;62812;55.188;61.302;2023-12-29T05:44:24;-6.06;66.72
74376;HTU21D;62812;55.188;61.302;2023-12-29T05:46:51;-6.08;63.72
74376;HTU21D;62812;55.188;61.302;2023-12-29T05:49:24;-6.19;62.98
74376;HTU21D;62812;55.188;61.302;2023-12-29T05:51:55;-6.02;66.57
74376;HTU21D;62812;55.188;61.302;2023-12-29T05:54:22;-6.13;64.89
74376;HTU21D;62812;55.188;61.302;2023-12-29T05:56:58;-6.18;65.40
74376;HTU21D;62812;55.188;61.302;2023-12-29T05:59:32;-6.21;67.49
74376;HTU21D;62812;55.188;61.302;2023-12-29T06:02:04;-6.29;62.99
74376;HTU21D;62812;55.188;61.302;2023-12-29T06:04:31;-6.63;63.53
74376;HTU21D;62812;55.188;61.302;2023-12-29T06:07:02;-6.65;63.75
74376;HTU21D;62812;55.188;61.302;2023-12-29T06:09:29;-6.64;65.43
74376;HTU21D;62812;55.188;61.302;2023-12-29T06:11:56;-6.64;63.40
74376;HTU21D;62812;55.188;61.302;2023-12-29T06:14:46;-6.47;66.03
74376;HTU21D;62812;55.188;61.302;2023-12-29T06:18:35;-6.36;63.89
74376;HTU21D;62812;55.188;61.302;2023-12-29T06:20:44;-6.51;62.02
74376;HTU21D;62812;55.188;61.302;2023-12-29T06:23:16;-6.53;61.42
74376;HTU21D;62812;55.188;61.302;2023-12-29T06:25:45;-6.57;63.58
74376;HTU21D;62812;55.188;61.302;2023-12-29T06:28:13;-6.57;61.05
74376;HTU21D;62812;55.188;61.302;2023-12-29T06:30:39;-6.60;64.09
74376;HTU21D;62812;55.188;61.302;2023-12-29T06:33:06;-6.50;66.25
74376;HTU21D;62812;55.188;61.302;2023-12-29T06:35:35;-6.58;62.70
74376;HTU21D;62812;55.188;61.302;2023-12-29T06:38:02;-6.63;66.83
74376;HTU21D;62812;55.188;61.302;2023-12-29T06:40:45;-6.51;65.33
74376;HTU21D;62812;55.188;61.302;2023-12-29T06:43:11;-6.48;65.14
74376;HTU21D;62812;55.188;61.302;2023-12-29T06:45:50;-6.58;63.35
74376;HTU21D;62812;55.188;61.302;2023-12-29T06:48:17;-6.55;62.55
74376;HTU21D;62812;55.188;61.302;2023-12-29T06:50:51;-6.60;61.40
74376;HTU21D;62812;55.188;61.302;2023-12-29T06:53:18;-6.61;62.29
74376;HTU21D;62812;55.188;61.302;2023-12-29T06:55:49;-6.63;63.52
74376;HTU21D;62812;55.188;61.302;2023-12-29T06:58:16;-6.62;62.28
74376;HTU21D;62812;55.188;61.302;2023-12-29T07:00:43;-6.59;62.07
74376;HTU21D;62812;55.188;61.302;2023-12-29T07:03:15;-6.67;60.80
74376;HTU21D;62812;55.188;61.302;2023-12-29T07:05:51;-6.56;62.74
74376;HTU21D;62812;55.188;61.302;2023-12-29T07:08:35;-6.63;63.29
74376;HTU21D;62812;55.188;61.302;2023-12-29T07:11:09;-6.72;61.14
74376;HTU21D;62812;55.188;61.302;2023-12-29T07:13:36;-6.75;61.06
74376;HTU21D;62812;55.188;61.302;2023-12-29T07:16:04;-6.61;62.73
74376;HTU21D;62812;55.188;61.302;2023-12-29T07:18:34;-6.68;61.82
74376;HTU21D;62812;55.188;61.302;2023-12-29T07:21:07;-6.62;63.34
74376;HTU21D;62812;55.188;61.302;2023-12-29T07:23:36;-6.60;60.18
74376;HTU21D;62812;55.188;61.302;2023-12-29T07:26:16;-6.45;60.49
74376;HTU21D;62812;55.188;61.302;2023-12-29T07:29:07;-6.46;59.54
74376;HTU21D;62812;55.188;61.302;2023-12-29T07:32:03;-6.51;61.37
74376;HTU21D;62812;55.188;61.302;2023-12-29T07:34:31;-6.53;59.28
74376;HTU21D;62812;55.188;61.302;2023-12-29T07:36:58;-6.51;59.53
74376;HTU21D;62812;55.188;61.302;2023-12-29T07:39:27;-6.59;60.99
74376;HTU21D;62812;55.188;61.302;2023-12-29T07:41:57;-6.59;59.27
74376;HTU21D;62812;55.188;61.302;2023-12-29T07:44:26;-6.57;60.04
74376;HTU21D;62812;55.188;61.302;2023-12-29T07:46:53;-6.59;59.12
74376;HTU21D;62812;55.188;61.302;2023-12-29T07:49:20;-6.64;58.25
74376;HTU21D;62812;55.188;61.302;2023-12-29T07:51:47;-6.62;61.63
74376;HTU21D;62812;55.188;61.302;2023-12-29T07:54:17;-6.73;59.09
74376;HTU21D;62812;55.188;61.302;2023-12-29T07:56:43;-6.68;61.07
74376;HTU21D;62812;55.188;61.302;2023-12-29T07:59:16;-6.43;62.63
74376;HTU21D;62812;55.188;61.302;2023-12-29T08:09:40;-6.23;61.13
74376;HTU21D;62812;55.188;61.302;2023-12-29T08:12:07;-6.21;60.60
74376;HTU21D;62812;55.188;61.302;2023-12-29T08:15:00;-6.13;58.10
74376;HTU21D;62812;55.188;61.302;2023-12-29T08:20:15;-6.32;59.98
74376;HTU21D;62812;55.188;61.302;2023-12-29T08:22:47;-6.39;59.55
74376;HTU21D;62812;55.188;61.302;2023-12-29T08:25:15;-6.36;60.74
74376;HTU21D;62812;55.188;61.302;2023-12-29T08:27:42;-6.34;59.50
74376;HTU21D;62812;55.188;61.302;2023-12-29T08:30:14;-6.33;58.99
74376;HTU21D;62812;55.188;61.302;2023-12-29T08:32:40;-6.14;58.76
74376;HTU21D;62812;55.188;61.302;2023-12-29T08:35:07;-6.06;60.20
74376;HTU21D;62812;55.188;61.302;2023-12-29T08:37:33;-6.02;58.45
74376;HTU21D;62812;55.188;61.302;2023-12-29T08:40:00;-6.09;57.51
74376;HTU21D;62812;55.188;61.302;2023-12-29T08:42:36;-6.21;58.51
74376;HTU21D;62812;55.188;61.302;2023-12-29T08:45:08;-6.27;57.24
74376;HTU21D;62812;55.188;61.302;2023-12-29T08:47:37;-6.33;57.90
74376;HTU21D;62812;55.188;61.302;2023-12-29T08:50:04;-6.36;59.37
74376;HTU21D;62812;55.188;61.302;2023-12-29T08:52:33;-6.46;58.90
74376;HTU21D;62812;55.188;61.302;2023-12-29T08:55:05;-6.61;62.00
74376;HTU21D;62812;55.188;61.302;2023-12-29T08:57:32;-6.48;62.08
74376;HTU21D;62812;55.188;61.302;2023-12-29T08:59:58;-6.47;60.62
74376;HTU21D;62812;55.188;61.302;2023-12-29T09:02:25;-6.55;58.60
74376;HTU21D;62812;55.188;61.302;2023-12-29T09:04:55;-6.63;58.98
74376;HTU21D;62812;55.188;61.302;2023-12-29T09:07:22;-6.64;59.74
74376;HTU21D;62812;55.188;61.302;2023-12-29T09:09:49;-6.63;59.77
74376;HTU21D;62812;55.188;61.302;2023-12-29T09:12:15;-6.64;59.80
74376;HTU21D;62812;55.188;61.302;2023-12-29T09:14:42;-6.64;58.82
74376;HTU21D;62812;55.188;61.302;2023-12-29T09:17:08;-6.57;59.70
74376;HTU21D;62812;55.188;61.302;2023-12-29T09:19:37;-6.57;57.71
74376;HTU21D;62812;55.188;61.302;2023-12-29T09:22:06;-6.62;57.90
74376;HTU21D;62812;55.188;61.302;2023-12-29T09:24:32;-6.72;57.38
74376;HTU21D;62812;55.188;61.302;2023-12-29T09:26:59;-6.67;58.51
74376;HTU21D;62812;55.188;61.302;2023-12-29T09:29:25;-6.76;57.47
74376;HTU21D;62812;55.188;61.302;2023-12-29T09:31:52;-6.87;57.33
74376;HTU21D;62812;55.188;61.302;2023-12-29T09:34:19;-6.88;58.83
74376;HTU21D;62812;55.188;61.302;2023-12-29T09:36:45;-6.92;60.41
74376;HTU21D;62812;55.188;61.302;2023-12-29T09:39:15;-6.71;59.51
74376;HTU21D;62812;55.188;61.302;2023-12-29T09:41:46;-6.68;59.35
74376;HTU21D;62812;55.188;61.302;2023-12-29T09:44:19;-6.71;58.30
74376;HTU21D;62812;55.188;61.302;2023-12-29T09:46:49;-6.61;61.04
74376;HTU21D;62812;55.188;61.302;2023-12-29T09:49:19;-6.52;61.49
74376;HTU21D;62812;55.188;61.302;2023-12-29T09:51:46;-6.48;62.27
74376;HTU21D;62812;55.188;61.302;2023-12-29T09:54:14;-6.61;58.81
74376;HTU21D;62812;55.188;61.302;2023-12-29T09:56:41;-6.73;61.94
74376;HTU21D;62812;55.188;61.302;2023-12-29T09:59:09;-6.64;58.67
74376;HTU21D;62812;55.188;61.302;2023-12-29T10:01:41;-6.63;58.80
74376;HTU21D;62812;55.188;61.302;2023-12-29T10:04:09;-6.71;59.90
74376;HTU21D;62812;55.188;61.302;2023-12-29T10:06:38;-6.72;59.56
74376;HTU21D;62812;55.188;61.302;2023-12-29T10:09:08;-6.68;60.75
74376;HTU21D;62812;55.188;61.302;2023-12-29T10:11:40;-6.76;60.11
74376;HTU21D;62812;55.188;61.302;2023-12-29T10:14:19;-6.85;59.20
74376;HTU21D;62812;55.188;61.302;2023-12-29T10:16:52;-6.79;59.93
74376;HTU21D;62812;55.188;61.302;2023-12-29T10:19:30;-6.63;61.06
74376;HTU21D;62812;55.188;61.302;2023-12-29T10:22:04;-6.61;60.18
74376;HTU21D;62812;55.188;61.302;2023-12-29T10:24:33;-6.53;58.80
74376;HTU21D;62812;55.188;61.302;2023-12-29T10:27:02;-6.49;59.77
74376;HTU21D;62812;55.188;61.302;2023-12-29T10:29:31;-6.57;58.44
74376;HTU21D;62812;55.188;61.302;2023-12-29T10:32:05;-6.48;58.87
74376;HTU21D;62812;55.188;61.302;2023-12-29T10:34:32;-6.49;59.58
74376;HTU21D;62812;55.188;61.302;2023-12-29T10:36:59;-6.53;59.56
74376;HTU21D;62812;55.188;61.302;2023-12-29T10:39:27;-6.62;57.62
74376;HTU21D;62812;55.188;61.302;2023-12-29T10:42:05;-6.74;57.00
74376;HTU21D;62812;55.188;61.302;2023-12-29T10:44:33;-6.77;59.72
74376;HTU21D;62812;55.188;61.302;2023-12-29T10:47:07;-6.79;59.02
74376;HTU21D;62812;55.188;61.302;2023-12-29T10:49:34;-6.74;58.00
74376;HTU21D;62812;55.188;61.302;2023-12-29T10:52:11;-6.79;57.87
74376;HTU21D;62812;55.188;61.302;2023-12-29T10:54:41;-6.80;59.50
74376;HTU21D;62812;55.188;61.302;2023-12-29T10:57:11;-6.73;58.22
74376;HTU21D;62812;55.188;61.302;2023-12-29T10:59:40;-6.75;58.67
74376;HTU21D;62812;55.188;61.302;2023-12-29T11:02:07;-6.77;57.67
74376;HTU21D;62812;55.188;61.302;2023-12-29T11:04:40;-6.93;57.34
74376;HTU21D;62812;55.188;61.302;2023-12-29T11:07:08;-6.94;58.71
74376;HTU21D;62812;55.188;61.302;2023-12-29T11:09:39;-6.88;58.00
74376;HTU21D;62812;55.188;61.302;2023-12-29T11:12:11;-6.94;57.53
74376;HTU21D;62812;55.188;61.302;2023-12-29T11:14:41;-7.00;58.33
74376;HTU21D;62812;55.188;61.302;2023-12-29T11:17:10;-7.06;58.91
74376;HTU21D;62812;55.188;61.302;2023-12-29T11:19:39;-7.07;60.38
74376;HTU21D;62812;55.188;61.302;2023-12-29T11:22:55;-7.12;58.54
74376;HTU21D;62812;55.188;61.302;2023-12-29T11:25:52;-7.17;58.51
74376;HTU21D;62812;55.188;61.302;2023-12-29T11:28:25;-7.24;58.25
74376;HTU21D;62812;55.188;61.302;2023-12-29T11:30:52;-7.33;58.65
74376;HTU21D;62812;55.188;61.302;2023-12-29T11:33:21;-7.38;58.83
74376;HTU21D;62812;55.188;61.302;2023-12-29T11:35:50;-7.37;59.85
74376;HTU21D;62812;55.188;61.302;2023-12-29T11:38:39;-7.39;59.61
74376;HTU21D;62812;55.188;61.302;2023-12-29T11:41:10;-7.40;59.03
74376;HTU21D;62812;55.188;61.302;2023-12-29T11:43:43;-7.45;59.01
74376;HTU21D;62812;55.188;61.302;2023-12-29T11:46:34;-7.48;59.50
74376;HTU21D;62812;55.188;61.302;2023-12-29T11:49:01;-7.48;59.13
74376;HTU21D;62812;55.188;61.302;2023-12-29T11:51:32;-7.51;59.21
74376;HTU21D;62812;55.188;61.302;2023-12-29T11:54:00;-7.53;59.29
74376;HTU21D;62812;55.188;61.302;2023-12-29T11:56:34;-7.52;60.14
74376;HTU21D;62812;55.188;61.302;2023-12-29T11:59:19;-7.51;59.37
74376;HTU21D;62812;55.188;61.302;2023-12-29T12:01:49;-7.34;59.83
74376;HTU21D;62812;55.188;61.302;2023-12-29T12:04:37;-7.33;59.40
74376;HTU21D;62812;55.188;61.302;2023-12-29T12:07:09;-7.29;58.96
74376;HTU21D;62812;55.188;61.302;2023-12-29T12:09:36;-7.30;59.99
74376;HTU21D;62812;55.188;61.302;2023-12-29T12:12:03;-7.25;60.03
74376;HTU21D;62812;55.188;61.302;2023-12-29T12:14:53;-7.19;59.68
74376;HTU21D;62812;55.188;61.302;2023-12-29T12:17:32;-7.23;59.54
74376;HTU21D;62812;55.188;61.302;2023-12-29T12:20:01;-7.26;57.90
74376;HTU21D;62812;55.188;61.302;2023-12-29T12:22:32;-7.36;58.48
74376;HTU21D;62812;55.188;61.302;2023-12-29T12:25:34;-7.45;58.56
74376;HTU21D;62812;55.188;61.302;2023-12-29T12:29:13;-7.59;58.83
74376;HTU21D;62812;55.188;61.302;2023-12-29T12:31:53;-7.68;59.41
74376;HTU21D;62812;55.188;61.302;2023-12-29T12:34:20;-7.79;59.50
74376;HTU21D;62812;55.188;61.302;2023-12-29T12:36:54;-7.79;60.09
74376;HTU21D;62812;55.188;61.302;2023-12-29T12:39:38;-7.81;59.80
74376;HTU21D;62812;55.188;61.302;2023-12-29T12:42:06;-7.70;61.16
74376;HTU21D;62812;55.188;61.302;2023-12-29T12:44:38;-7.66;60.23
74376;HTU21D;62812;55.188;61.302;2023-12-29T12:47:26;-7.69;60.18
74376;HTU21D;62812;55.188;61.302;2023-12-29T12:49:53;-7.77;60.15
74376;HTU21D;62812;55.188;61.302;2023-12-29T12:52:24;-7.81;60.50
74376;HTU21D;62812;55.188;61.302;2023-12-29T12:54:54;-7.89;61.10
74376;HTU21D;62812;55.188;61.302;2023-12-29T12:57:27;-7.94;61.72
74376;HTU21D;62812;55.188;61.302;2023-12-29T12:59:53;-8.00;61.67
74376;HTU21D;62812;55.188;61.302;2023-12-29T13:02:24;-8.07;61.62
74376;HTU21D;62812;55.188;61.302;2023-12-29T13:04:57;-8.06;62.21
74376;HTU21D;62812;55.188;61.302;2023-12-29T13:07:42;-8.12;61.99
74376;HTU21D;62812;55.188;61.302;2023-12-29T13:10:12;-8.20;62.53
74376;HTU21D;62812;55.188;61.302;2023-12-29T13:16:28;-8.30;62.79
74376;HTU21D;62812;55.188;61.302;2023-12-29T13:18:56;-8.33;63.06
74376;HTU21D;62812;55.188;61.302;2023-12-29T13:21:24;-8.33;63.22
74376;HTU21D;62812;55.188;61.302;2023-12-29T13:23:51;-8.34;62.99
74376;HTU21D;62812;55.188;61.302;2023-12-29T13:26:21;-8.35;63.59
74376;HTU21D;62812;55.188;61.302;2023-12-29T13:28:48;-8.35;63.43
74376;HTU21D;62812;55.188;61.302;2023-12-29T13:31:23;-8.24;67.35
74376;HTU21D;62812;55.188;61.302;2023-12-29T13:33:59;-8.18;63.25
74376;HTU21D;62812;55.188;61.302;2023-12-29T13:36:39;-8.23;63.60
74376;HTU21D;62812;55.188;61.302;2023-12-29T13:39:11;-8.12;64.44
74376;HTU21D;62812;55.188;61.302;2023-12-29T13:41:42;-8.20;63.65
74376;HTU21D;62812;55.188;61.302;2023-12-29T13:44:10;-8.25;63.93
74376;HTU21D;62812;55.188;61.302;2023-12-29T13:46:37;-8.29;64.08
74376;HTU21D;62812;55.188;61.302;2023-12-29T13:49:09;-8.33;63.91
74376;HTU21D;62812;55.188;61.302;2023-12-29T13:51:42;-8.38;64.32
74376;HTU21D;62812;55.188;61.302;2023-12-29T13:54:08;-8.37;64.41
74376;HTU21D;62812;55.188;61.302;2023-12-29T13:56:35;-8.38;65.17
74376;HTU21D;62812;55.188;61.302;2023-12-29T13:59:05;-8.40;64.61
74376;HTU21D;62812;55.188;61.302;2023-12-29T14:01:36;-8.45;64.94
74376;HTU21D;62812;55.188;61.302;2023-12-29T14:04:06;-8.44;65.41
74376;HTU21D;62812;55.188;61.302;2023-12-29T14:06:42;-8.46;65.59
74376;HTU21D;62812;55.188;61.302;2023-12-29T14:09:17;-8.51;66.09
74376;HTU21D;62812;55.188;61.302;2023-12-29T14:11:49;-8.48;66.36
74376;HTU21D;62812;55.188;61.302;2023-12-29T14:17:33;-8.40;66.32
74376;HTU21D;62812;55.188;61.302;2023-12-29T14:20:00;-8.39;66.41
74376;HTU21D;62812;55.188;61.302;2023-12-29T14:22:34;-8.40;66.83
74376;HTU21D;62812;55.188;61.302;2023-12-29T14:25:02;-8.40;66.96
74376;HTU21D;62812;55.188;61.302;2023-12-29T14:27:30;-8.40;66.89
74376;HTU21D;62812;55.188;61.302;2023-12-29T14:29:57;-8.37;66.80
74376;HTU21D;62812;55.188;61.302;2023-12-29T14:32:25;-8.25;67.49
74376;HTU21D;62812;55.188;61.302;2023-12-29T14:34:55;-8.20;66.69
74376;HTU21D;62812;55.188;61.302;2023-12-29T14:37:22;-8.24;66.75
74376;HTU21D;62812;55.188;61.302;2023-12-29T14:39:51;-8.23;66.65
74376;HTU21D;62812;55.188;61.302;2023-12-29T14:42:20;-8.20;67.18
74376;HTU21D;62812;55.188;61.302;2023-12-29T14:44:47;-8.18;66.62
74376;HTU21D;62812;55.188;61.302;2023-12-29T14:47:36;-8.13;66.50
74376;HTU21D;62812;55.188;61.302;2023-12-29T14:50:13;-8.14;66.75
74376;HTU21D;62812;55.188;61.302;2023-12-29T14:52:42;-8.09;66.73
74376;HTU21D;62812;55.188;61.302;2023-12-29T14:55:10;-8.10;66.50
74376;HTU21D;62812;55.188;61.302;2023-12-29T14:57:37;-8.12;66.75
74376;HTU21D;62812;55.188;61.302;2023-12-29T15:00:06;-8.10;66.75
74376;HTU21D;62812;55.188;61.302;2023-12-29T15:02:38;-8.10;66.69
74376;HTU21D;62812;55.188;61.302;2023-12-29T15:05:05;-8.10;66.92
74376;HTU21D;62812;55.188;61.302;2023-12-29T15:07:33;-8.08;66.92
74376;HTU21D;62812;55.188;61.302;2023-12-29T15:10:03;-8.05;66.69
74376;HTU21D;62812;55.188;61.302;2023-12-29T15:13:00;-8.04;66.40
74376;HTU21D;62812;55.188;61.302;2023-12-29T15:15:30;-7.99;66.36
74376;HTU21D;62812;55.188;61.302;2023-12-29T15:17:57;-7.97;66.17
74376;HTU21D;62812;55.188;61.302;2023-12-29T15:20:24;-7.94;65.96
74376;HTU21D;62812;55.188;61.302;2023-12-29T15:22:51;-7.90;65.78
74376;HTU21D;62812;55.188;61.302;2023-12-29T15:25:21;-7.86;65.56
74376;HTU21D;62812;55.188;61.302;2023-12-29T15:27:50;-7.85;65.36
74376;HTU21D;62812;55.188;61.302;2023-12-29T15:30:19;-7.85;65.29
74376;HTU21D;62812;55.188;61.302;2023-12-29T15:32:46;-7.85;64.84
74376;HTU21D;62812;55.188;61.302;2023-12-29T15:35:12;-7.81;66.20
74376;HTU21D;62812;55.188;61.302;2023-12-29T15:37:39;-7.76;64.88
74376;HTU21D;62812;55.188;61.302;2023-12-29T15:40:07;-7.67;64.91